createdAt,value
2019-05-22T00:00:06.958Z,29.13
2019-05-22T00:02:40.714Z,25.70
2019-05-22T00:05:24.064Z,26.30
2019-05-22T00:07:52.429Z,43.50
2019-05-22T00:10:25.394Z,62.77
2019-05-22T00:12:54.164Z,61.00
2019-05-22T00:15:23.754Z,66.87
2019-05-22T00:17:53.599Z,65.23
2019-05-22T00:20:22.795Z,97.37
2019-05-22T00:22:52.745Z,92.50
2019-05-22T00:25:20.667Z,74.70
2019-05-22T00:27:49.708Z,93.80
2019-05-22T00:30:17.690Z,81.80
2019-05-22T00:32:47.531Z,53.70
2019-05-22T00:35:16.286Z,93.07
2019-05-22T00:37:45.306Z,106.20
2019-05-22T00:40:14.856Z,235.97
2019-05-22T00:42:44.320Z,86.50
2019-05-22T00:45:14.241Z,129.97
2019-05-22T00:47:42.977Z,171.30
2019-05-22T00:50:15.727Z,125.10
2019-05-22T00:52:48.969Z,128.53
2019-05-22T00:55:36.201Z,88.37
2019-05-22T00:58:16.491Z,69.50
2019-05-22T01:01:00.020Z,83.97
2019-05-22T01:03:29.185Z,76.43
2019-05-22T01:05:58.163Z,69.63
2019-05-22T01:08:27.487Z,81.73
2019-05-22T01:10:56.977Z,63.20
2019-05-22T01:13:30.231Z,53.80
2019-05-22T01:15:59.285Z,46.43
2019-05-22T01:18:28.146Z,48.37
2019-05-22T01:20:58.410Z,47.30
2019-05-22T01:23:29.460Z,52.03
2019-05-22T01:25:58.730Z,55.73
2019-05-22T01:28:27.307Z,54.07
2019-05-22T01:31:02.610Z,52.07
2019-05-22T01:33:32.494Z,48.23
2019-05-22T01:36:23.036Z,49.47
2019-05-22T01:38:52.647Z,53.47
2019-05-22T01:41:25.945Z,48.80
2019-05-22T01:43:55.697Z,44.80
2019-05-22T01:46:24.858Z,54.57
2019-05-22T01:48:55.868Z,64.13
2019-05-22T01:51:24.576Z,66.20
2019-05-22T01:53:53.186Z,87.50
2019-05-22T01:56:20.640Z,82.27
2019-05-22T01:58:49.934Z,103.77
2019-05-22T02:01:19.159Z,91.73
2019-05-22T02:03:46.968Z,65.27
2019-05-22T02:06:16.398Z,77.33
2019-05-22T02:08:51.169Z,124.73
2019-05-22T02:11:21.842Z,90.80
2019-05-22T02:13:56.196Z,110.13
2019-05-22T02:16:23.794Z,189.07
2019-05-22T02:18:51.828Z,88.97
2019-05-22T02:21:19.872Z,138.87
2019-05-22T02:23:48.101Z,93.40
2019-05-22T02:26:16.560Z,84.63
2019-05-22T02:28:44.440Z,92.80
2019-05-22T02:31:14.690Z,101.87
2019-05-22T02:34:01.011Z,72.80
2019-05-22T02:36:28.532Z,80.70
2019-05-22T02:38:56.713Z,106.43
2019-05-22T02:41:26.179Z,113.20
2019-05-22T02:43:55.304Z,64.47
2019-05-22T02:46:22.721Z,95.63
2019-05-22T02:48:51.586Z,88.93
2019-05-22T02:51:19.536Z,83.97
2019-05-22T02:53:49.333Z,100.60
2019-05-22T02:56:17.523Z,93.03
2019-05-22T02:58:45.483Z,75.27
2019-05-22T03:01:13.457Z,67.20
2019-05-22T03:03:40.810Z,109.00
2019-05-22T03:06:11.701Z,97.37
2019-05-22T03:09:07.435Z,62.53
2019-05-22T03:11:38.990Z,42.00
2019-05-22T03:14:08.683Z,48.40
2019-05-22T03:16:50.560Z,36.30
2019-05-22T03:19:25.894Z,43.40
2019-05-22T03:21:54.648Z,35.23
2019-05-22T03:24:22.497Z,44.90
2019-05-22T03:26:52.762Z,43.93
2019-05-22T03:29:26.804Z,41.50
2019-05-22T03:31:54.397Z,44.33
2019-05-22T03:34:21.755Z,46.30
2019-05-22T03:36:49.683Z,46.67
2019-05-22T03:39:18.728Z,54.73
2019-05-22T03:41:46.634Z,43.23
2019-05-22T03:44:15.304Z,43.87
2019-05-22T03:46:45.880Z,49.10
2019-05-22T03:49:28.886Z,34.13
2019-05-22T03:51:50.123Z,28.50
2019-05-22T03:54:19.405Z,26.43
2019-05-22T03:56:47.187Z,27.90
2019-05-22T03:59:14.643Z,25.20
2019-05-22T04:01:42.985Z,21.20
2019-05-22T04:04:11.052Z,24.47
2019-05-22T04:06:40.766Z,27.27
2019-05-22T04:09:19.336Z,25.70
2019-05-22T04:11:46.852Z,28.47
2019-05-22T04:14:14.346Z,26.90
2019-05-22T04:16:43.714Z,21.20
2019-05-22T04:19:12.509Z,21.40
2019-05-22T04:21:39.835Z,24.23
2019-05-22T04:24:07.510Z,21.13
2019-05-22T04:26:35.265Z,22.20
2019-05-22T04:29:05.011Z,18.37
2019-05-22T04:31:48.955Z,19.83
2019-05-22T04:34:17.181Z,21.10
2019-05-22T04:36:46.277Z,23.93
2019-05-22T04:39:19.974Z,24.50
2019-05-22T04:41:47.283Z,25.00
2019-05-22T04:44:14.760Z,22.37
2019-05-22T04:46:44.978Z,29.83
2019-05-22T04:49:12.725Z,22.27
2019-05-22T04:51:40.271Z,20.77
2019-05-22T04:54:07.648Z,24.67
2019-05-22T04:56:35.407Z,27.13
2019-05-22T04:59:03.711Z,23.90
2019-05-22T05:01:31.980Z,27.53
2019-05-22T05:03:59.870Z,23.90
2019-05-22T05:06:30.719Z,24.37
2019-05-22T05:08:58.477Z,25.10
2019-05-22T05:11:26.042Z,22.77
2019-05-22T05:13:54.162Z,22.43
2019-05-22T05:16:21.543Z,19.57
2019-05-22T05:18:49.006Z,22.23
2019-05-22T05:21:16.587Z,27.60
2019-05-22T05:23:43.951Z,22.60
2019-05-22T05:26:11.512Z,19.03
2019-05-22T05:28:39.069Z,24.10
2019-05-22T05:31:06.416Z,20.40
2019-05-22T05:33:43.729Z,18.27
2019-05-22T05:36:12.247Z,18.20
2019-05-22T05:38:39.800Z,16.27
2019-05-22T05:41:07.266Z,20.67
2019-05-22T05:43:34.872Z,19.63
2019-05-22T05:46:03.094Z,19.10
2019-05-22T05:48:32.492Z,19.23
2019-05-22T05:51:32.655Z,22.47
2019-05-22T05:54:06.733Z,18.90
2019-05-22T05:56:35.095Z,19.63
2019-05-22T05:59:04.946Z,19.27
2019-05-22T06:01:35.943Z,17.87
2019-05-22T06:04:03.907Z,16.63
2019-05-22T06:07:13.331Z,15.80
2019-05-22T06:09:41.501Z,13.13
2019-05-22T06:12:11.381Z,13.63
2019-05-22T06:14:41.345Z,14.07
2019-05-22T06:17:51.131Z,17.77
2019-05-22T06:20:19.775Z,16.40
2019-05-22T06:23:40.255Z,14.67
2019-05-22T06:26:09.511Z,14.83
2019-05-22T06:28:37.733Z,14.43
2019-05-22T06:31:09.966Z,16.17
2019-05-22T06:33:38.169Z,15.03
2019-05-22T06:36:08.367Z,13.70
2019-05-22T06:38:56.875Z,13.60
2019-05-22T06:41:28.315Z,13.60
2019-05-22T06:44:58.719Z,12.67
2019-05-22T06:47:28.257Z,13.23
2019-05-22T06:49:56.850Z,13.93
2019-05-22T06:52:24.387Z,13.60
2019-05-22T06:54:52.707Z,13.87
2019-05-22T06:57:33.471Z,12.07
2019-05-22T07:00:13.977Z,13.47
2019-05-22T07:02:38.245Z,13.37
2019-05-22T07:05:06.515Z,12.93
2019-05-22T07:07:33.960Z,13.83
2019-05-22T07:10:01.450Z,14.10
2019-05-22T07:12:30.782Z,13.47
2019-05-22T07:15:49.614Z,13.40
2019-05-22T07:18:20.100Z,13.67
2019-05-22T07:20:49.154Z,13.40
2019-05-22T07:23:22.148Z,12.90
2019-05-22T07:25:51.033Z,13.00
2019-05-22T07:28:19.730Z,12.97
2019-05-22T07:30:48.227Z,12.47
2019-05-22T07:33:16.424Z,15.23
2019-05-22T07:35:56.747Z,12.83
2019-05-22T07:38:15.057Z,13.07
2019-05-22T07:40:43.285Z,13.33
2019-05-22T07:43:10.670Z,12.70
2019-05-22T07:45:38.063Z,12.07
2019-05-22T07:48:07.277Z,13.60
2019-05-22T07:50:39.947Z,10.93
2019-05-22T07:53:07.902Z,12.30
2019-05-22T07:55:35.228Z,12.13
2019-05-22T07:58:14.081Z,12.57
2019-05-22T08:00:47.150Z,11.17
2019-05-22T08:03:15.389Z,11.93
2019-05-22T08:05:47.963Z,11.87
2019-05-22T08:08:18.704Z,10.83
2019-05-22T08:10:45.882Z,11.50
2019-05-22T08:13:14.099Z,11.47
2019-05-22T08:15:41.798Z,10.07
2019-05-22T08:18:09.609Z,9.87
2019-05-22T08:20:38.117Z,10.53
2019-05-22T08:23:07.169Z,8.57
2019-05-22T08:25:34.745Z,10.33
2019-05-22T08:28:02.960Z,9.33
2019-05-22T08:30:30.410Z,9.13
2019-05-22T08:33:01.974Z,7.90
2019-05-22T08:35:30.432Z,7.60
2019-05-22T08:37:58.758Z,8.00
2019-05-22T08:40:26.524Z,7.83
2019-05-22T08:42:54.961Z,10.87
2019-05-22T08:45:22.951Z,9.17
2019-05-22T08:47:50.445Z,9.20
2019-05-22T08:50:20.424Z,9.63
2019-05-22T08:52:48.534Z,11.73
2019-05-22T08:55:16.345Z,9.70
2019-05-22T08:57:45.758Z,8.80
2019-05-22T09:00:15.977Z,9.37
2019-05-22T09:02:44.154Z,8.77
2019-05-22T09:05:12.577Z,8.10
2019-05-22T09:07:41.601Z,8.07
2019-05-22T09:10:10.684Z,10.00
2019-05-22T09:12:38.072Z,8.73
2019-05-22T09:15:06.355Z,9.47
2019-05-22T09:17:33.714Z,8.33
2019-05-22T09:20:01.763Z,7.70
2019-05-22T09:22:39.982Z,7.80
2019-05-22T09:25:00.199Z,7.30
2019-05-22T09:27:27.777Z,7.37
2019-05-22T09:29:55.169Z,8.27
2019-05-22T09:32:22.635Z,8.40
2019-05-22T09:34:50.284Z,7.20
2019-05-22T09:37:18.080Z,15.53
2019-05-22T09:39:45.421Z,7.90
2019-05-22T09:42:13.499Z,8.13
2019-05-22T09:44:40.885Z,7.07
2019-05-22T09:47:08.878Z,8.30
2019-05-22T09:49:37.175Z,8.37
2019-05-22T09:52:09.136Z,6.87
2019-05-22T09:54:37.194Z,6.37
2019-05-22T09:57:05.032Z,7.23
2019-05-22T09:59:32.637Z,6.60
2019-05-22T10:02:00.124Z,9.80
2019-05-22T10:04:28.241Z,7.40
2019-05-22T10:06:55.856Z,6.63
2019-05-22T10:09:24.736Z,7.50
2019-05-22T10:11:53.036Z,6.60
2019-05-22T10:14:21.362Z,6.60
2019-05-22T10:16:48.822Z,7.13
2019-05-22T10:19:16.614Z,6.40
2019-05-22T10:21:44.564Z,7.13
2019-05-22T10:24:12.586Z,8.93
2019-05-22T10:26:40.455Z,7.37
2019-05-22T10:29:08.417Z,8.93
2019-05-22T10:31:36.016Z,6.93
2019-05-22T10:34:03.497Z,6.73
2019-05-22T10:36:31.671Z,6.87
2019-05-22T10:38:59.091Z,7.10
2019-05-22T10:41:27.041Z,9.83
2019-05-22T10:43:54.419Z,7.23
2019-05-22T10:46:21.921Z,6.57
2019-05-22T10:48:49.412Z,8.43
2019-05-22T10:51:16.882Z,8.83
2019-05-22T10:53:44.269Z,7.07
2019-05-22T10:56:11.799Z,6.57
2019-05-22T10:58:39.283Z,7.17
2019-05-22T11:01:08.049Z,7.83
2019-05-22T11:03:36.003Z,6.73
2019-05-22T11:06:07.669Z,6.97
2019-05-22T11:08:34.452Z,6.77
2019-05-22T11:11:02.246Z,6.50
2019-05-22T11:13:29.724Z,7.20
2019-05-22T11:15:58.185Z,7.20
2019-05-22T11:18:25.837Z,8.00
2019-05-22T11:20:53.191Z,6.57
2019-05-22T11:23:20.789Z,8.73
2019-05-22T11:25:48.544Z,6.90
2019-05-22T11:28:16.009Z,7.57
2019-05-22T11:30:43.458Z,6.97
2019-05-22T11:33:11.057Z,7.43
2019-05-22T11:35:38.503Z,8.03
2019-05-22T11:38:06.631Z,7.37
2019-05-22T11:40:34.156Z,7.67
2019-05-22T11:43:02.487Z,7.33
2019-05-22T11:45:30.197Z,8.97
2019-05-22T11:47:57.559Z,10.40
2019-05-22T11:50:27.232Z,7.67
2019-05-22T11:52:54.699Z,7.80
2019-05-22T11:55:42.154Z,8.93
2019-05-22T11:57:53.108Z,6.97
2019-05-22T12:00:22.553Z,7.23
2019-05-22T12:02:50.992Z,8.47
2019-05-22T12:05:19.365Z,7.53
2019-05-22T12:07:47.444Z,7.30
2019-05-22T12:10:15.433Z,7.47
2019-05-22T12:12:43.857Z,8.30
2019-05-22T12:15:12.367Z,9.63
2019-05-22T12:17:40.061Z,8.07
2019-05-22T12:20:09.688Z,8.30
2019-05-22T12:22:38.012Z,7.40
2019-05-22T12:25:05.892Z,10.03
2019-05-22T12:27:33.571Z,7.10
2019-05-22T12:30:01.566Z,10.97
2019-05-22T12:32:29.595Z,6.97
2019-05-22T12:34:57.175Z,7.07
2019-05-22T12:37:24.607Z,7.37
2019-05-22T12:39:51.944Z,7.50
2019-05-22T12:42:20.126Z,7.57
2019-05-22T12:44:48.022Z,7.20
2019-05-22T12:47:15.969Z,8.00
2019-05-22T12:49:43.496Z,7.07
2019-05-22T12:52:10.890Z,7.60
2019-05-22T12:54:47.353Z,7.97
2019-05-22T12:57:09.844Z,7.47
2019-05-22T12:59:37.224Z,7.50
2019-05-22T13:02:06.693Z,7.77
2019-05-22T13:04:34.340Z,6.93
2019-05-22T13:07:02.703Z,10.43
2019-05-22T13:09:30.839Z,9.40
2019-05-22T13:11:59.309Z,9.60
2019-05-22T13:14:26.708Z,8.67
2019-05-22T13:16:55.014Z,9.43
2019-05-22T13:19:22.950Z,11.33
2019-05-22T13:21:53.119Z,8.93
2019-05-22T13:24:22.410Z,9.57
2019-05-22T13:26:50.374Z,10.33
2019-05-22T13:29:18.030Z,9.87
2019-05-22T13:31:47.824Z,10.27
2019-05-22T13:34:16.183Z,10.63
2019-05-22T13:36:45.081Z,10.43
2019-05-22T13:39:14.333Z,12.57
2019-05-22T13:41:42.257Z,12.33
2019-05-22T13:44:09.990Z,11.97
2019-05-22T13:46:37.657Z,9.87
2019-05-22T13:49:06.212Z,11.63
2019-05-22T13:51:33.899Z,11.17
2019-05-22T13:54:01.380Z,11.20
2019-05-22T13:56:28.809Z,10.13
2019-05-22T13:58:56.775Z,9.13
2019-05-22T14:01:24.571Z,10.47
2019-05-22T14:03:53.090Z,9.03
2019-05-22T14:06:20.428Z,8.00
2019-05-22T14:08:48.019Z,10.23
2019-05-22T14:11:16.511Z,7.63
2019-05-22T14:13:44.179Z,7.73
2019-05-22T14:16:14.631Z,6.77
2019-05-22T14:18:41.984Z,6.80
2019-05-22T14:21:09.442Z,8.73
2019-05-22T14:23:36.955Z,8.77
2019-05-22T14:26:04.380Z,9.10
2019-05-22T14:28:31.889Z,7.60
2019-05-22T14:30:59.412Z,6.60
2019-05-22T14:33:28.293Z,8.23
2019-05-22T14:35:56.651Z,6.07
2019-05-22T14:38:25.189Z,8.10
2019-05-22T14:40:52.954Z,6.53
2019-05-22T14:43:20.269Z,6.40
2019-05-22T14:45:47.840Z,7.00
2019-05-22T14:48:15.694Z,6.13
2019-05-22T14:50:43.989Z,5.90
2019-05-22T14:53:12.097Z,6.47
2019-05-22T14:55:40.375Z,5.77
2019-05-22T14:58:08.369Z,6.67
2019-05-22T15:00:37.641Z,5.13
2019-05-22T15:03:05.916Z,5.47
2019-05-22T15:05:33.352Z,4.73
2019-05-22T15:08:00.742Z,4.90
2019-05-22T15:10:28.915Z,5.17
2019-05-22T15:12:56.396Z,6.07
2019-05-22T15:15:23.938Z,4.50
2019-05-22T15:17:52.507Z,6.30
2019-05-22T15:20:26.932Z,5.47
2019-05-22T15:22:56.100Z,5.60
2019-05-22T15:25:25.422Z,5.27
2019-05-22T15:27:53.465Z,4.23
2019-05-22T15:30:20.949Z,4.80
2019-05-22T15:32:48.316Z,4.80
2019-05-22T15:35:15.788Z,4.73
2019-05-22T15:37:44.308Z,8.17
2019-05-22T15:40:13.205Z,4.50
2019-05-22T15:42:44.104Z,5.67
2019-05-22T15:45:14.739Z,7.57
2019-05-22T15:47:54.785Z,5.63
2019-05-22T15:50:18.961Z,4.97
2019-05-22T15:52:53.812Z,5.73
2019-05-22T15:55:24.214Z,6.97
2019-05-22T15:57:51.599Z,7.00
2019-05-22T16:00:23.872Z,5.50
2019-05-22T16:02:51.232Z,6.13
2019-05-22T16:05:20.836Z,7.13
2019-05-22T16:07:49.362Z,6.83
2019-05-22T16:10:21.093Z,6.73
2019-05-22T16:12:48.675Z,8.50
2019-05-22T16:15:19.105Z,7.10
2019-05-22T16:17:48.697Z,5.60
2019-05-22T16:20:18.997Z,7.13
2019-05-22T16:22:46.742Z,5.60
2019-05-22T16:25:15.059Z,6.57
2019-05-22T16:27:43.458Z,5.90
2019-05-22T16:30:11.466Z,6.47
2019-05-22T16:32:40.244Z,5.60
2019-05-22T16:35:09.003Z,8.97
2019-05-22T16:37:37.147Z,6.10
2019-05-22T16:40:05.240Z,5.23
2019-05-22T16:42:33.395Z,7.93
2019-05-22T16:45:01.226Z,5.47
2019-05-22T16:47:28.947Z,7.60
2019-05-22T16:49:57.878Z,8.13
2019-05-22T16:52:27.766Z,7.00
2019-05-22T16:54:55.806Z,7.33
2019-05-22T16:57:24.169Z,8.50
2019-05-22T16:59:52.100Z,8.20
2019-05-22T17:02:19.949Z,7.63
2019-05-22T17:04:48.150Z,8.70
2019-05-22T17:07:16.415Z,9.13
2019-05-22T17:09:45.677Z,6.83
2019-05-22T17:12:16.372Z,5.10
2019-05-22T17:14:45.232Z,5.27
2019-05-22T17:17:16.009Z,5.23
2019-05-22T17:19:43.484Z,5.47
2019-05-22T17:22:12.237Z,5.03
2019-05-22T17:24:39.591Z,6.83
2019-05-22T17:27:09.675Z,6.47
2019-05-22T17:29:37.579Z,9.83
2019-05-22T17:32:05.717Z,6.57
2019-05-22T17:34:36.611Z,6.53
2019-05-22T17:37:08.897Z,7.67
2019-05-22T17:39:39.486Z,7.80
2019-05-22T17:42:09.184Z,7.77
2019-05-22T17:44:38.746Z,6.73
2019-05-22T17:47:07.998Z,6.73
2019-05-22T17:49:35.464Z,6.23
2019-05-22T17:52:04.662Z,6.97
2019-05-22T17:54:32.772Z,10.37
2019-05-22T17:57:00.647Z,8.73
2019-05-22T17:59:28.127Z,8.77
2019-05-22T18:01:55.569Z,8.77
2019-05-22T18:04:23.327Z,9.47
2019-05-22T18:06:51.029Z,9.40
2019-05-22T18:09:18.761Z,10.93
2019-05-22T18:11:46.255Z,7.43
2019-05-22T18:14:14.499Z,8.63
2019-05-22T18:16:42.255Z,10.43
2019-05-22T18:19:10.896Z,10.50
2019-05-22T18:21:39.476Z,8.53
2019-05-22T18:24:08.218Z,8.73
2019-05-22T18:26:35.776Z,8.70
2019-05-22T18:29:03.678Z,9.73
2019-05-22T18:31:31.169Z,11.33
2019-05-22T18:33:58.552Z,9.53
2019-05-22T18:36:26.051Z,10.23
2019-05-22T18:38:53.487Z,9.13
2019-05-22T18:41:20.969Z,8.43
2019-05-22T18:43:48.717Z,9.80
2019-05-22T18:46:16.267Z,10.07
2019-05-22T18:48:43.639Z,9.90
2019-05-22T18:51:11.080Z,8.63
2019-05-22T18:53:39.354Z,7.47
2019-05-22T18:56:10.647Z,8.00
2019-05-22T18:58:37.075Z,4.53
2019-05-22T19:01:04.914Z,6.20
2019-05-22T19:03:32.290Z,7.70
2019-05-22T19:06:01.566Z,6.20
2019-05-22T19:08:29.063Z,6.20
2019-05-22T19:10:56.533Z,6.10
2019-05-22T19:13:23.981Z,6.47
2019-05-22T19:15:51.327Z,4.40
2019-05-22T19:18:18.809Z,6.87
2019-05-22T19:20:46.298Z,7.47
2019-05-22T19:23:13.692Z,4.00
2019-05-22T19:25:41.067Z,9.17
2019-05-22T19:28:08.637Z,6.30
2019-05-22T19:30:36.016Z,5.93
2019-05-22T19:33:04.200Z,5.60
2019-05-22T19:35:32.053Z,7.83
2019-05-22T19:38:00.182Z,4.97
2019-05-22T19:40:28.357Z,9.03
2019-05-22T19:42:56.187Z,5.07
2019-05-22T19:45:23.564Z,5.17
2019-05-22T19:47:55.217Z,6.63
2019-05-22T19:50:24.687Z,4.93
2019-05-22T19:52:52.696Z,4.33
2019-05-22T19:55:20.865Z,8.63
2019-05-22T19:57:49.003Z,5.07
2019-05-22T20:00:17.061Z,3.73
2019-05-22T20:02:45.132Z,7.40
2019-05-22T20:05:12.587Z,7.37
2019-05-22T20:07:40.464Z,4.87
2019-05-22T20:10:10.415Z,5.77
2019-05-22T20:12:38.313Z,7.50
2019-05-22T20:15:07.820Z,10.13
2019-05-22T20:17:35.253Z,7.87
2019-05-22T20:20:04.088Z,9.53
2019-05-22T20:22:32.187Z,10.30
2019-05-22T20:24:59.552Z,11.67
2019-05-22T20:27:27.021Z,11.00
2019-05-22T20:29:54.550Z,11.67
2019-05-22T20:32:22.222Z,10.43
2019-05-22T20:34:49.584Z,13.90
2019-05-22T20:37:18.108Z,11.57
2019-05-22T20:39:46.080Z,13.10
2019-05-22T20:42:13.427Z,10.23
2019-05-22T20:44:41.807Z,11.07
2019-05-22T20:47:10.674Z,10.73
2019-05-22T20:49:41.392Z,6.80
2019-05-22T20:52:10.715Z,14.97
2019-05-22T20:54:38.910Z,14.37
2019-05-22T20:57:08.180Z,10.83
2019-05-22T20:59:37.848Z,10.73
2019-05-22T21:02:05.819Z,17.20
2019-05-22T21:04:34.456Z,12.27
2019-05-22T21:07:06.605Z,14.33
2019-05-22T21:09:34.722Z,16.80
2019-05-22T21:12:03.138Z,13.87
2019-05-22T21:14:30.869Z,14.10
2019-05-22T21:16:58.371Z,13.27
2019-05-22T21:19:27.979Z,12.27
2019-05-22T21:21:57.261Z,15.23
2019-05-22T21:24:25.778Z,14.63
2019-05-22T21:26:53.542Z,12.23
2019-05-22T21:29:21.490Z,10.07
2019-05-22T21:31:49.859Z,8.17
2019-05-22T21:34:17.416Z,9.90
2019-05-22T21:36:44.875Z,12.60
2019-05-22T21:39:13.164Z,13.13
2019-05-22T21:41:40.586Z,13.43
2019-05-22T21:44:08.141Z,10.23
2019-05-22T21:46:36.467Z,10.60
2019-05-22T21:49:06.161Z,9.70
2019-05-22T21:51:33.865Z,9.17
2019-05-22T21:54:01.243Z,5.63
2019-05-22T21:56:29.413Z,9.57
2019-05-22T21:58:57.388Z,8.60
2019-05-22T22:01:30.293Z,8.53
2019-05-22T22:04:03.209Z,4.90
2019-05-22T22:06:33.352Z,9.10
2019-05-22T22:09:00.779Z,10.53
2019-05-22T22:11:28.726Z,8.13
2019-05-22T22:13:56.408Z,8.07
2019-05-22T22:16:24.194Z,10.43
2019-05-22T22:18:52.762Z,6.43
2019-05-22T22:21:20.904Z,10.53
2019-05-22T22:23:48.294Z,7.40
2019-05-22T22:26:25.478Z,6.93
2019-05-22T22:28:46.104Z,5.80
2019-05-22T22:31:17.176Z,8.70
2019-05-22T22:33:49.600Z,5.80
2019-05-22T22:36:17.879Z,6.67
2019-05-22T22:38:45.322Z,5.10
2019-05-22T22:41:13.377Z,8.27
2019-05-22T22:43:43.065Z,5.63
2019-05-22T22:46:20.492Z,7.77
2019-05-22T22:48:50.979Z,7.70
2019-05-22T22:51:20.285Z,8.63
2019-05-22T22:53:48.553Z,3.00
2019-05-22T22:56:16.841Z,4.57
2019-05-22T22:58:45.123Z,5.43
2019-05-22T23:01:20.656Z,4.73
2019-05-22T23:03:49.631Z,7.43
2019-05-22T23:06:17.972Z,7.23
2019-05-22T23:08:46.617Z,6.07
2019-05-22T23:11:16.464Z,7.00
2019-05-22T23:13:44.449Z,8.03
2019-05-22T23:16:11.784Z,9.80
2019-05-22T23:19:27.508Z,7.17
2019-05-22T23:21:53.891Z,7.77
2019-05-22T23:24:23.700Z,9.97
2019-05-22T23:26:51.036Z,7.77
2019-05-22T23:29:19.004Z,5.40
2019-05-22T23:31:47.986Z,5.00
2019-05-22T23:34:16.413Z,4.87
2019-05-22T23:36:44.652Z,1.70
2019-05-22T23:39:14.666Z,5.73
2019-05-22T23:41:42.556Z,4.50
2019-05-22T23:44:11.756Z,2.20
2019-05-22T23:46:40.795Z,6.10
2019-05-22T23:49:09.443Z,4.93
2019-05-22T23:51:37.747Z,5.93
2019-05-22T23:54:05.607Z,3.40
2019-05-22T23:56:35.894Z,6.30
2019-05-22T23:59:03.501Z,7.33
